Time;durP1;ratioP1;P1;durP2;ratioP2;P2;SDS_P1;SDS_P2;PMS_P1;PMS_P2;Temp;Humidity;BMP_temperature;BMP_pressure;BME280_temperature;BME280_humidity;BME280_pressure;Samples;Min_cycle;Max_cycle;Signal;HPM_P1;HPM_P2
2023/04/08 00:02:01;;;;;;;59.23;42.60;;;;;;;;;;5033370;28;20191;-66
2023/04/08 00:04:27;;;;;;;67.97;46.80;;;;;;;;;;5015443;28;20211;-65
2023/04/08 00:06:53;;;;;;;75.90;50.40;;;;;;;;;;5033361;28;20602;-65
2023/04/08 00:09:19;;;;;;;70.53;47.43;;;;;;;;;;5033676;28;20546;-66
2023/04/08 00:11:45;;;;;;;77.00;50.27;;;;;;;;;;5033122;28;20246;-67
2023/04/08 00:14:11;;;;;;;73.40;48.33;;;;;;;;;;5033905;28;20213;-65
2023/04/08 00:16:37;;;;;;;89.90;53.87;;;;;;;;;;5033519;28;20198;-66
2023/04/08 00:19:05;;;;;;;86.00;52.33;;;;;;;;;;5033634;28;20249;-66
2023/04/08 00:21:31;;;;;;;77.63;51.30;;;;;;;;;;5015515;28;20253;-66
2023/04/08 00:23:57;;;;;;;73.20;49.00;;;;;;;;;;5033250;28;20547;-66
2023/04/08 00:26:23;;;;;;;68.00;47.13;;;;;;;;;;5033308;28;20183;-66
2023/04/08 00:28:49;;;;;;;63.83;45.03;;;;;;;;;;5016627;28;20175;-65
2023/04/08 00:31:15;;;;;;;66.67;47.87;;;;;;;;;;5034698;28;20202;-66
2023/04/08 00:33:41;;;;;;;67.00;47.13;;;;;;;;;;5034482;28;20290;-64
2023/04/08 00:36:07;;;;;;;76.53;52.77;;;;;;;;;;5033870;28;20552;-65
2023/04/08 00:38:33;;;;;;;71.83;50.53;;;;;;;;;;5034183;28;20172;-65
2023/04/08 00:40:59;;;;;;;60.33;42.87;;;;;;;;;;5033607;28;20230;-66
2023/04/08 00:43:25;;;;;;;65.13;43.90;;;;;;;;;;5033671;28;20179;-67
2023/04/08 00:45:51;;;;;;;57.47;42.37;;;;;;;;;;5033688;28;20688;-65
2023/04/08 00:48:17;;;;;;;57.60;43.07;;;;;;;;;;5033141;28;20207;-65
2023/04/08 00:50:45;;;;;;;61.10;44.27;;;;;;;;;;5033213;28;20668;-66
2023/04/08 00:53:12;;;;;;;67.83;44.63;;;;;;;;;;5033248;28;20175;-65
2023/04/08 00:55:38;;;;;;;64.70;45.87;;;;;;;;;;5015371;28;20183;-65
2023/04/08 00:58:04;;;;;;;61.70;44.77;;;;;;;;;;5032950;28;20206;-66
2023/04/08 01:00:30;;;;;;;62.43;46.53;;;;;;;;;;5035979;28;20187;-66
2023/04/08 01:03:05;;;;;;;59.97;43.87;;;;;;;;;;5037640;28;20664;-66
2023/04/08 01:05:51;;;;;;;62.93;44.63;;;;;;;;;;5019230;28;20647;-66
2023/04/08 01:08:18;;;;;;;63.47;46.20;;;;;;;;;;5022819;28;20198;-66
2023/04/08 01:10:48;;;;;;;60.67;44.03;;;;;;;;;;5036134;28;20560;-64
2023/04/08 01:13:17;;;;;;;61.67;45.23;;;;;;;;;;5018422;28;20183;-66
2023/04/08 01:15:43;;;;;;;60.53;45.40;;;;;;;;;;5036012;28;20187;-66
2023/04/08 01:18:11;;;;;;;64.30;45.50;;;;;;;;;;5035988;28;20168;-66
2023/04/08 01:20:38;;;;;;;64.40;46.70;;;;;;;;;;5035973;28;20560;-65
2023/04/08 01:23:10;;;;;;;64.63;46.53;;;;;;;;;;5035875;28;20210;-66
2023/04/08 01:25:37;;;;;;;61.77;45.10;;;;;;;;;;5036121;28;20171;-66
2023/04/08 01:28:05;;;;;;;61.03;44.83;;;;;;;;;;5035730;28;20202;-66
2023/04/08 01:30:32;;;;;;;60.90;45.70;;;;;;;;;;5036006;28;20648;-66
2023/04/08 01:32:59;;;;;;;65.53;45.40;;;;;;;;;;5035647;28;20230;-66
2023/04/08 01:35:25;;;;;;;64.20;47.53;;;;;;;;;;5036344;28;20598;-66
2023/04/08 01:37:51;;;;;;;65.77;47.70;;;;;;;;;;5035721;28;20175;-66
2023/04/08 01:40:18;;;;;;;64.53;47.03;;;;;;;;;;5017905;28;20213;-67
2023/04/08 01:42:45;;;;;;;65.13;47.50;;;;;;;;;;5035505;28;20223;-66
2023/04/08 01:45:11;;;;;;;66.70;47.10;;;;;;;;;;5035841;28;20179;-66
2023/04/08 01:47:38;;;;;;;64.93;47.00;;;;;;;;;;5035423;28;20179;-65
2023/04/08 01:50:04;;;;;;;66.47;46.57;;;;;;;;;;5017694;28;20215;-66
2023/04/08 01:52:32;;;;;;;68.77;47.60;;;;;;;;;;5035592;28;20575;-66
2023/04/08 01:54:58;;;;;;;66.47;47.77;;;;;;;;;;5035357;28;20195;-66
2023/04/08 01:57:27;;;;;;;68.77;46.23;;;;;;;;;;5035310;28;20167;-66
2023/04/08 01:59:56;;;;;;;68.23;46.20;;;;;;;;;;5035385;28;20261;-66
2023/04/08 02:02:25;;;;;;;69.00;49.00;;;;;;;;;;5035261;28;20711;-65
2023/04/08 02:04:51;;;;;;;67.70;47.63;;;;;;;;;;5035408;28;20183;-66
2023/04/08 02:07:17;;;;;;;63.77;46.17;;;;;;;;;;5035766;28;20667;-65
2023/04/08 02:09:43;;;;;;;64.77;46.83;;;;;;;;;;5017909;28;20190;-66
2023/04/08 02:12:09;;;;;;;65.43;48.57;;;;;;;;;;5034744;28;20645;-66
2023/04/08 02:14:35;;;;;;;62.40;45.80;;;;;;;;;;5035297;28;20230;-66
2023/04/08 02:17:08;;;;;;;64.23;46.57;;;;;;;;;;5035514;28;20182;-66
2023/04/08 02:19:46;;;;;;;67.77;47.13;;;;;;;;;;5034901;28;20167;-66
2023/04/08 02:22:17;;;;;;;69.77;47.73;;;;;;;;;;5034889;28;20191;-66
2023/04/08 02:24:43;;;;;;;71.60;48.13;;;;;;;;;;5035042;28;20168;-66
2023/04/08 02:27:10;;;;;;;75.97;48.03;;;;;;;;;;5035442;28;20182;-66
2023/04/08 02:29:36;;;;;;;73.30;48.70;;;;;;;;;;5038774;28;20225;-66
2023/04/08 02:32:03;;;;;;;74.10;48.40;;;;;;;;;;5034774;28;20688;-65
2023/04/08 02:34:30;;;;;;;69.13;47.47;;;;;;;;;;5016782;28;20226;-65
2023/04/08 02:36:56;;;;;;;78.00;49.47;;;;;;;;;;5034604;28;20180;-66
2023/04/08 02:39:30;;;;;;;73.70;48.57;;;;;;;;;;5034478;28;20175;-64
2023/04/08 02:41:55;;;;;;;71.40;49.03;;;;;;;;;;5034625;28;20596;-66
2023/04/08 02:44:21;;;;;;;73.63;48.67;;;;;;;;;;5034711;28;20190;-65
2023/04/08 02:46:47;;;;;;;71.80;47.67;;;;;;;;;;5034299;28;20183;-66
2023/04/08 02:49:13;;;;;;;73.67;49.27;;;;;;;;;;5034336;28;20180;-66
2023/04/08 02:51:39;;;;;;;72.63;48.07;;;;;;;;;;5034530;28;20203;-66
2023/04/08 02:54:05;;;;;;;69.60;46.63;;;;;;;;;;5034302;28;20206;-66
2023/04/08 02:56:31;;;;;;;75.63;47.63;;;;;;;;;;5034217;28;20176;-66
2023/04/08 02:58:57;;;;;;;65.60;45.43;;;;;;;;;;5034104;28;20204;-66
2023/04/08 03:01:23;;;;;;;69.67;46.13;;;;;;;;;;5034077;28;20236;-66
2023/04/08 03:03:49;;;;;;;66.37;46.53;;;;;;;;;;5034150;28;20187;-66
2023/04/08 03:06:15;;;;;;;66.27;45.43;;;;;;;;;;5034040;28;20646;-66
2023/04/08 03:08:41;;;;;;;68.27;46.50;;;;;;;;;;5034009;28;20181;-65
2023/04/08 03:11:07;;;;;;;70.50;46.00;;;;;;;;;;5033697;28;20297;-66
2023/04/08 03:13:34;;;;;;;74.03;46.80;;;;;;;;;;5033824;28;20238;-66
2023/04/08 03:16:00;;;;;;;70.20;43.93;;;;;;;;;;5016152;28;20181;-66
2023/04/08 03:18:26;;;;;;;68.03;45.77;;;;;;;;;;5033699;28;20179;-66
2023/04/08 03:20:52;;;;;;;73.53;47.73;;;;;;;;;;5033879;28;20202;-66
2023/04/08 03:23:18;;;;;;;67.47;45.63;;;;;;;;;;5067509;23;20684;-67
2023/04/08 03:25:44;;;;;;;66.97;45.17;;;;;;;;;;5035627;28;20209;-66
2023/04/08 03:28:10;;;;;;;68.83;47.03;;;;;;;;;;5053899;28;20170;-69
2023/04/08 03:30:36;;;;;;;66.83;43.00;;;;;;;;;;5035468;28;20600;-68
2023/04/08 03:33:04;;;;;;;65.93;44.53;;;;;;;;;;5035197;28;20230;-68
2023/04/08 03:35:30;;;;;;;70.30;45.13;;;;;;;;;;5035194;28;20210;-67
2023/04/08 03:37:56;;;;;;;73.00;47.00;;;;;;;;;;5035484;28;20604;-67
2023/04/08 03:40:21;;;;;;;71.03;46.07;;;;;;;;;;5053230;28;20178;-67
2023/04/08 03:42:47;;;;;;;74.23;48.23;;;;;;;;;;5053160;28;20327;-67
2023/04/08 03:45:13;;;;;;;82.20;50.00;;;;;;;;;;5035224;28;20227;-67
2023/04/08 03:47:40;;;;;;;80.73;49.10;;;;;;;;;;5053059;28;20185;-68
2023/04/08 03:50:06;;;;;;;73.83;49.43;;;;;;;;;;5052986;28;20186;-68
2023/04/08 03:52:32;;;;;;;88.43;50.03;;;;;;;;;;5035154;28;20250;-67
2023/04/08 03:54:58;;;;;;;76.23;47.43;;;;;;;;;;5052962;28;20233;-67
2023/04/08 03:57:24;;;;;;;73.93;48.43;;;;;;;;;;5035088;28;20178;-67
2023/04/08 03:59:50;;;;;;;80.77;48.07;;;;;;;;;;5035052;28;20178;-67
2023/04/08 04:02:16;;;;;;;84.73;50.17;;;;;;;;;;5053163;28;20201;-67
2023/04/08 04:04:42;;;;;;;87.57;51.33;;;;;;;;;;5035170;28;20188;-68
2023/04/08 04:07:08;;;;;;;82.80;51.10;;;;;;;;;;5053371;28;20181;-67
2023/04/08 04:09:34;;;;;;;78.50;50.10;;;;;;;;;;5052969;28;20213;-68
2023/04/08 04:12:00;;;;;;;83.50;53.70;;;;;;;;;;5053167;28;20183;-67
2023/04/08 04:14:26;;;;;;;77.07;48.63;;;;;;;;;;5034966;28;20202;-67
2023/04/08 04:16:52;;;;;;;80.43;49.73;;;;;;;;;;5035121;28;20262;-67
2023/04/08 04:19:18;;;;;;;86.63;52.20;;;;;;;;;;5035084;28;20600;-67
2023/04/08 04:21:44;;;;;;;88.80;54.60;;;;;;;;;;5053428;28;20595;-66
2023/04/08 04:24:10;;;;;;;87.93;52.37;;;;;;;;;;5034742;28;20214;-67
2023/04/08 04:26:36;;;;;;;113.80;57.53;;;;;;;;;;5034958;28;20187;-67
2023/04/08 04:29:02;;;;;;;109.00;54.43;;;;;;;;;;5053129;28;20559;-67
2023/04/08 04:31:28;;;;;;;106.17;54.40;;;;;;;;;;5035103;28;20178;-66
2023/04/08 04:33:54;;;;;;;149.93;60.73;;;;;;;;;;5035510;28;20210;-67
2023/04/08 04:36:20;;;;;;;119.93;57.40;;;;;;;;;;5038931;28;20532;-67
2023/04/08 04:38:46;;;;;;;145.20;57.77;;;;;;;;;;5056838;28;20174;-67
2023/04/08 04:41:12;;;;;;;239.27;62.97;;;;;;;;;;5038845;28;20170;-67
2023/04/08 04:43:38;;;;;;;556.00;77.13;;;;;;;;;;5056921;28;20205;-67
2023/04/08 04:46:07;;;;;;;740.93;80.37;;;;;;;;;;5056997;28;20179;-67
2023/04/08 04:48:33;;;;;;;831.50;81.07;;;;;;;;;;5056939;28;20261;-68
2023/04/08 04:51:03;;;;;;;747.73;77.07;;;;;;;;;;5057119;28;20178;-67
2023/04/08 04:53:30;;;;;;;276.87;61.27;;;;;;;;;;5056823;28;20214;-67
2023/04/08 04:55:56;;;;;;;303.57;62.17;;;;;;;;;;5038853;28;20202;-67
2023/04/08 04:58:22;;;;;;;329.37;60.00;;;;;;;;;;5056609;28;20174;-67
2023/04/08 05:00:48;;;;;;;573.10;62.70;;;;;;;;;;5057265;28;20182;-67
2023/04/08 05:03:14;;;;;;;436.40;56.63;;;;;;;;;;5038878;28;20568;-67
2023/04/08 05:05:40;;;;;;;476.40;58.63;;;;;;;;;;5056711;28;20181;-68
2023/04/08 05:08:06;;;;;;;202.50;47.40;;;;;;;;;;5038407;28;20183;-67
2023/04/08 05:10:32;;;;;;;395.60;55.93;;;;;;;;;;5038275;28;20273;-68
2023/04/08 05:12:58;;;;;;;594.20;56.87;;;;;;;;;;5056290;28;20194;-67
2023/04/08 05:15:24;;;;;;;568.97;50.63;;;;;;;;;;5056068;28;20206;-67
2023/04/08 05:17:50;;;;;;;641.93;53.13;;;;;;;;;;5038263;28;20236;-67
2023/04/08 05:20:16;;;;;;;450.67;50.20;;;;;;;;;;5056326;28;20590;-68
2023/04/08 05:22:44;;;;;;;488.03;49.73;;;;;;;;;;5037837;28;20676;-68
2023/04/08 05:25:10;;;;;;;473.83;54.73;;;;;;;;;;5055839;28;20718;-68
2023/04/08 05:27:37;;;;;;;426.60;50.20;;;;;;;;;;5055817;28;20559;-68
2023/04/08 05:30:03;;;;;;;229.97;42.93;;;;;;;;;;5055827;28;20175;-67
2023/04/08 05:32:29;;;;;;;241.53;46.43;;;;;;;;;;5037781;28;20668;-68
2023/04/08 05:34:55;;;;;;;389.50;49.00;;;;;;;;;;5055649;28;20198;-68
2023/04/08 05:37:21;;;;;;;119.83;41.07;;;;;;;;;;5055587;28;20179;-68
2023/04/08 05:39:47;;;;;;;117.63;40.40;;;;;;;;;;5037635;28;20183;-68
2023/04/08 05:42:13;;;;;;;193.97;42.47;;;;;;;;;;5055393;28;20217;-68
2023/04/08 05:44:42;;;;;;;203.43;43.70;;;;;;;;;;5055645;28;20178;-68
2023/04/08 05:47:09;;;;;;;277.43;48.63;;;;;;;;;;5054256;28;20178;-68
2023/04/08 05:49:35;;;;;;;310.17;45.10;;;;;;;;;;5055403;28;20175;-68
2023/04/08 05:52:02;;;;;;;404.63;47.03;;;;;;;;;;5037408;28;20641;-68
2023/04/08 05:54:28;;;;;;;172.17;40.70;;;;;;;;;;5037353;28;20202;-68
2023/04/08 05:56:54;;;;;;;369.03;49.33;;;;;;;;;;5055559;28;20171;-68
2023/04/08 05:59:20;;;;;;;412.00;50.80;;;;;;;;;;5055238;28;20533;-68
2023/04/08 06:01:46;;;;;;;471.07;51.23;;;;;;;;;;5055201;28;20185;-68
2023/04/08 06:04:12;;;;;;;324.00;48.43;;;;;;;;;;5055221;28;20738;-68
2023/04/08 06:06:41;;;;;;;324.80;48.50;;;;;;;;;;5037122;28;20277;-68
2023/04/08 06:09:08;;;;;;;313.73;44.63;;;;;;;;;;5037023;28;20221;-68
2023/04/08 06:11:34;;;;;;;251.00;43.60;;;;;;;;;;5055155;28;20228;-68
2023/04/08 06:14:00;;;;;;;128.63;40.70;;;;;;;;;;5054917;28;20217;-68
2023/04/08 06:16:26;;;;;;;163.67;43.67;;;;;;;;;;5036854;28;20269;-68
2023/04/08 06:18:52;;;;;;;200.87;46.07;;;;;;;;;;5036946;28;20183;-68
2023/04/08 06:21:18;;;;;;;274.60;49.87;;;;;;;;;;5054809;28;20210;-68
2023/04/08 06:23:44;;;;;;;492.43;57.10;;;;;;;;;;5054562;28;20632;-68
2023/04/08 06:26:10;;;;;;;263.17;52.10;;;;;;;;;;5054730;28;20205;-68
2023/04/08 06:28:36;;;;;;;526.57;61.50;;;;;;;;;;5036608;28;20227;-68
2023/04/08 06:31:02;;;;;;;527.77;64.23;;;;;;;;;;5054595;28;20174;-67
2023/04/08 06:33:28;;;;;;;832.30;77.53;;;;;;;;;;5054537;28;20210;-68
2023/04/08 06:36:07;;;;;;;398.53;60.10;;;;;;;;;;5054545;28;20181;-67
2023/04/08 06:38:33;;;;;;;377.83;62.77;;;;;;;;;;5054539;28;20178;-68
2023/04/08 06:41:03;;;;;;;399.33;60.33;;;;;;;;;;5054484;28;20174;-67
2023/04/08 06:43:29;;;;;;;360.23;56.00;;;;;;;;;;5054460;28;20199;-67
2023/04/08 06:45:56;;;;;;;211.43;49.57;;;;;;;;;;5037425;28;20174;-67
2023/04/08 06:48:22;;;;;;;532.93;59.10;;;;;;;;;;5054272;28;20174;-67
2023/04/08 06:50:49;;;;;;;480.57;54.20;;;;;;;;;;5054488;28;20174;-67
2023/04/08 06:53:15;;;;;;;498.67;59.60;;;;;;;;;;5036257;28;20196;-67
2023/04/08 06:55:41;;;;;;;215.03;38.60;;;;;;;;;;5054278;28;20571;-68
2023/04/08 06:58:06;;;;;;;330.63;38.83;;;;;;;;;;5054262;28;20557;-67
2023/04/08 07:00:32;;;;;;;339.43;43.13;;;;;;;;;;5036206;28;20682;-68
2023/04/08 07:02:58;;;;;;;259.70;42.40;;;;;;;;;;5036272;28;20199;-67
2023/04/08 07:05:24;;;;;;;417.63;43.57;;;;;;;;;;5053935;28;20732;-67
2023/04/08 07:07:50;;;;;;;390.17;44.40;;;;;;;;;;5054258;28;20667;-67
2023/04/08 07:10:16;;;;;;;262.00;37.60;;;;;;;;;;5036004;28;20186;-67
2023/04/08 07:12:42;;;;;;;364.73;43.23;;;;;;;;;;5053791;28;20206;-67
2023/04/08 07:15:09;;;;;;;186.53;39.00;;;;;;;;;;5053984;28;20202;-67
2023/04/08 07:17:35;;;;;;;239.17;40.93;;;;;;;;;;5035892;28;20200;-68
2023/04/08 07:20:01;;;;;;;100.07;36.97;;;;;;;;;;5035865;28;20178;-67
2023/04/08 07:22:27;;;;;;;111.77;40.47;;;;;;;;;;5035615;28;20249;-67
2023/04/08 07:24:53;;;;;;;113.93;41.93;;;;;;;;;;5053918;28;20167;-68
2023/04/08 07:27:20;;;;;;;131.47;41.13;;;;;;;;;;5053602;28;20181;-68
2023/04/08 07:29:46;;;;;;;133.27;42.20;;;;;;;;;;5035750;28;20265;-67
2023/04/08 07:32:12;;;;;;;156.37;45.27;;;;;;;;;;5053347;28;20221;-67
2023/04/08 07:34:38;;;;;;;147.73;45.10;;;;;;;;;;5053371;28;20256;-68
2023/04/08 07:37:05;;;;;;;130.10;42.90;;;;;;;;;;5035695;28;20206;-68
2023/04/08 07:39:31;;;;;;;176.33;43.77;;;;;;;;;;5053289;28;20181;-67
2023/04/08 07:41:56;;;;;;;116.67;39.77;;;;;;;;;;5053613;28;20171;-67
2023/04/08 07:44:22;;;;;;;122.60;37.80;;;;;;;;;;5053611;28;20202;-67
2023/04/08 07:46:50;;;;;;;125.63;40.03;;;;;;;;;;5053433;28;20178;-67
2023/04/08 07:49:16;;;;;;;71.57;38.80;;;;;;;;;;5035678;28;20218;-67
2023/04/08 07:51:42;;;;;;;79.00;37.87;;;;;;;;;;5035752;28;20182;-67
2023/04/08 07:54:11;;;;;;;143.10;41.03;;;;;;;;;;5053587;28;20210;-67
2023/04/08 07:56:39;;;;;;;70.93;41.00;;;;;;;;;;5053805;28;20192;-67
2023/04/08 07:59:05;;;;;;;82.17;39.90;;;;;;;;;;5035440;28;20182;-69
2023/04/08 08:01:33;;;;;;;77.70;36.93;;;;;;;;;;5053176;28;20637;-68
2023/04/08 08:03:59;;;;;;;79.67;33.80;;;;;;;;;;5053226;28;20622;-69
2023/04/08 08:06:26;;;;;;;65.63;30.40;;;;;;;;;;5053297;28;20655;-69
2023/04/08 08:08:52;;;;;;;137.80;33.97;;;;;;;;;;5052772;28;20170;-67
2023/04/08 08:11:20;;;;;;;68.10;32.47;;;;;;;;;;5053038;28;20178;-70
2023/04/08 08:13:46;;;;;;;66.23;32.67;;;;;;;;;;5035156;28;20210;-69
2023/04/08 08:16:12;;;;;;;117.03;34.77;;;;;;;;;;5053179;28;20239;-68
2023/04/08 08:18:38;;;;;;;99.70;34.27;;;;;;;;;;5053268;28;20248;-68
2023/04/08 08:21:05;;;;;;;71.87;32.40;;;;;;;;;;5053024;28;20174;-71
2023/04/08 08:23:31;;;;;;;44.40;36.00;;;;;;;;;;5039303;28;20236;-70
2023/04/08 08:26:00;;;;;;;44.23;37.43;;;;;;;;;;5055878;28;20186;-69
2023/04/08 08:28:26;;;;;;;47.33;38.87;;;;;;;;;;5054533;28;20182;-69
2023/04/08 08:30:52;;;;;;;52.30;43.40;;;;;;;;;;5053427;28;20198;-69
2023/04/08 08:33:18;;;;;;;56.50;44.33;;;;;;;;;;5035025;28;20198;-68
2023/04/08 08:35:45;;;;;;;49.57;42.43;;;;;;;;;;5053022;28;20179;-69
2023/04/08 08:38:12;;;;;;;51.53;41.23;;;;;;;;;;5053456;28;20329;-69
2023/04/08 08:40:38;;;;;;;46.47;39.50;;;;;;;;;;5034964;28;20182;-69
2023/04/08 08:43:04;;;;;;;42.87;38.13;;;;;;;;;;5034821;28;20198;-69
2023/04/08 08:45:30;;;;;;;40.10;35.63;;;;;;;;;;5052574;28;20174;-69
2023/04/08 08:47:56;;;;;;;46.83;38.13;;;;;;;;;;5052636;28;20259;-68
2023/04/08 08:50:22;;;;;;;40.93;36.47;;;;;;;;;;5034715;28;20174;-69
2023/04/08 08:52:49;;;;;;;38.17;34.07;;;;;;;;;;5052372;28;20236;-70
2023/04/08 08:55:17;;;;;;;37.77;33.67;;;;;;;;;;5052348;28;20234;-70
2023/04/08 08:57:44;;;;;;;38.93;34.77;;;;;;;;;;5052368;28;20649;-70
2023/04/08 09:00:10;;;;;;;33.77;30.27;;;;;;;;;;5034529;28;20185;-70
2023/04/08 09:02:36;;;;;;;37.00;32.10;;;;;;;;;;5034479;28;20737;-69
2023/04/08 09:05:03;;;;;;;35.90;32.23;;;;;;;;;;5034434;28;20186;-69
2023/04/08 09:07:30;;;;;;;37.30;32.47;;;;;;;;;;5052529;28;20174;-70
2023/04/08 09:09:56;;;;;;;33.33;30.13;;;;;;;;;;5052489;28;20708;-69
2023/04/08 09:12:23;;;;;;;35.70;30.50;;;;;;;;;;5052309;28;20543;-69
2023/04/08 09:14:49;;;;;;;33.20;29.73;;;;;;;;;;5052340;28;20210;-67
2023/04/08 09:17:16;;;;;;;31.73;28.73;;;;;;;;;;5052281;28;20174;-69
2023/04/08 09:20:00;;;;;;;32.47;29.17;;;;;;;;;;5052533;28;20557;-69
2023/04/08 09:22:26;;;;;;;30.87;27.73;;;;;;;;;;5055569;28;20229;-70
2023/04/08 09:24:52;;;;;;;29.53;26.67;;;;;;;;;;5056072;28;20625;-70
2023/04/08 09:27:33;;;;;;;30.30;27.20;;;;;;;;;;5037845;28;20649;-69
2023/04/08 09:30:14;;;;;;;32.27;29.03;;;;;;;;;;5044105;22;20608;-66
2023/04/08 09:32:47;;;;;;;34.43;29.07;;;;;;;;;;5035545;28;20170;-66
2023/04/08 09:35:15;;;;;;;38.40;34.30;;;;;;;;;;5017876;28;20199;-65
2023/04/08 09:37:41;;;;;;;32.60;29.40;;;;;;;;;;5035819;28;20171;-65
2023/04/08 09:40:07;;;;;;;33.77;29.40;;;;;;;;;;5035308;28;20563;-65
2023/04/08 09:42:34;;;;;;;31.87;28.57;;;;;;;;;;5035680;28;20171;-65
2023/04/08 09:45:01;;;;;;;61.20;42.73;;;;;;;;;;5017798;28;20221;-66
2023/04/08 09:47:28;;;;;;;52.10;37.27;;;;;;;;;;5017737;28;20177;-66
2023/04/08 09:50:04;;;;;;;38.00;33.20;;;;;;;;;;5017687;28;20195;-66
2023/04/08 09:52:33;;;;;;;48.20;33.50;;;;;;;;;;5035831;28;20163;-66
2023/04/08 09:55:03;;;;;;;37.90;33.13;;;;;;;;;;5035411;28;20724;-66
2023/04/08 09:57:35;;;;;;;38.90;31.70;;;;;;;;;;5017413;28;20245;-66
2023/04/08 10:00:07;;;;;;;34.93;31.13;;;;;;;;;;5035163;28;20195;-66
2023/04/08 10:02:38;;;;;;;33.37;29.80;;;;;;;;;;5017331;28;20171;-66
2023/04/08 10:05:05;;;;;;;33.07;28.57;;;;;;;;;;5035220;28;20182;-66
2023/04/08 10:07:31;;;;;;;31.07;27.77;;;;;;;;;;5035131;28;20207;-66
2023/04/08 10:09:57;;;;;;;30.43;27.43;;;;;;;;;;5034946;28;20199;-67
2023/04/08 10:12:24;;;;;;;30.07;26.90;;;;;;;;;;5035343;28;20183;-65
2023/04/08 10:15:09;;;;;;;32.63;28.37;;;;;;;;;;5035330;28;20691;-65
2023/04/08 10:17:35;;;;;;;30.43;27.10;;;;;;;;;;5035254;28;20249;-65
2023/04/08 10:20:02;;;;;;;29.73;26.53;;;;;;;;;;5034735;28;20669;-65
2023/04/08 10:22:28;;;;;;;29.87;26.77;;;;;;;;;;5035799;28;20179;-65
2023/04/08 10:25:12;;;;;;;27.03;24.20;;;;;;;;;;5035297;28;20179;-65
2023/04/08 10:27:40;;;;;;;27.43;24.53;;;;;;;;;;5017208;28;20190;-65
2023/04/08 10:30:26;;;;;;;24.83;22.00;;;;;;;;;;5017012;28;20225;-65
2023/04/08 10:32:56;;;;;;;24.77;22.23;;;;;;;;;;5016522;28;20193;-65
2023/04/08 10:35:30;;;;;;;29.63;23.43;;;;;;;;;;5034955;28;20199;-66
2023/04/08 10:37:56;;;;;;;23.80;21.30;;;;;;;;;;5034982;28;20193;-65
2023/04/08 10:40:21;;;;;;;24.83;22.23;;;;;;;;;;5034873;28;20661;-67
2023/04/08 10:42:54;;;;;;;24.13;21.70;;;;;;;;;;5017048;28;20185;-67
2023/04/08 10:45:20;;;;;;;23.00;20.67;;;;;;;;;;5017058;28;20180;-64
2023/04/08 10:47:45;;;;;;;22.10;18.27;;;;;;;;;;5034812;28;20189;-64
2023/04/08 10:50:12;;;;;;;24.53;20.00;;;;;;;;;;5016885;28;20211;-64
2023/04/08 10:52:47;;;;;;;19.17;17.17;;;;;;;;;;5035169;28;20724;-65
2023/04/08 10:55:14;;;;;;;18.03;15.80;;;;;;;;;;5034397;28;20202;-64
2023/04/08 10:57:40;;;;;;;16.57;14.90;;;;;;;;;;5034596;28;20175;-65
2023/04/08 11:00:10;;;;;;;16.67;14.97;;;;;;;;;;5034644;28;20623;-64
2023/04/08 11:02:39;;;;;;;15.73;14.00;;;;;;;;;;5016792;28;20175;-64
2023/04/08 11:05:05;;;;;;;15.80;14.20;;;;;;;;;;5035053;28;20186;-64
2023/04/08 11:07:31;;;;;;;16.77;15.00;;;;;;;;;;5034754;28;20236;-63
2023/04/08 11:09:59;;;;;;;18.13;15.20;;;;;;;;;;5034355;28;20198;-64
2023/04/08 11:12:26;;;;;;;18.00;14.40;;;;;;;;;;5016770;28;20222;-63
2023/04/08 11:14:52;;;;;;;14.80;13.40;;;;;;;;;;5034577;28;20539;-64
2023/04/08 11:17:18;;;;;;;12.67;11.37;;;;;;;;;;5016601;28;20186;-64
2023/04/08 11:19:45;;;;;;;15.80;10.67;;;;;;;;;;5034702;28;20572;-63
2023/04/08 11:22:12;;;;;;;10.80;9.40;;;;;;;;;;5016695;28;20182;-64
2023/04/08 11:24:38;;;;;;;10.70;9.60;;;;;;;;;;5034079;28;20179;-66
2023/04/08 11:27:07;;;;;;;12.23;9.80;;;;;;;;;;5016395;28;20179;-65
2023/04/08 11:29:33;;;;;;;10.17;9.07;;;;;;;;;;5016624;28;20595;-64
2023/04/08 11:32:00;;;;;;;10.93;8.37;;;;;;;;;;5016597;28;20192;-65
2023/04/08 11:34:27;;;;;;;9.67;8.67;;;;;;;;;;5033992;28;20190;-66
2023/04/08 11:36:53;;;;;;;11.27;8.43;;;;;;;;;;5016390;28;20186;-66
2023/04/08 11:39:22;;;;;;;9.47;7.43;;;;;;;;;;5034068;28;20199;-66
2023/04/08 11:41:48;;;;;;;8.03;7.20;;;;;;;;;;5033709;28;20180;-66
2023/04/08 11:44:15;;;;;;;8.47;7.57;;;;;;;;;;5033867;28;20182;-66
2023/04/08 11:46:41;;;;;;;10.23;7.87;;;;;;;;;;5033416;28;20175;-67
2023/04/08 11:49:08;;;;;;;8.07;7.20;;;;;;;;;;5015628;28;20692;-65
2023/04/08 11:51:36;;;;;;;9.20;6.90;;;;;;;;;;5033398;28;20179;-65
2023/04/08 11:54:06;;;;;;;11.23;8.50;;;;;;;;;;5015610;28;20340;-66
2023/04/08 11:56:43;;;;;;;9.30;7.43;;;;;;;;;;5033289;28;20178;-65
2023/04/08 11:59:10;;;;;;;10.20;7.80;;;;;;;;;;5033675;28;20680;-65
2023/04/08 12:01:36;;;;;;;8.50;7.70;;;;;;;;;;5033616;28;20254;-66
2023/04/08 12:04:02;;;;;;;9.97;8.50;;;;;;;;;;5015662;28;20222;-66
2023/04/08 12:06:28;;;;;;;10.90;8.73;;;;;;;;;;5033550;28;20175;-66
2023/04/08 12:08:55;;;;;;;11.77;10.27;;;;;;;;;;5033148;28;20193;-67
2023/04/08 12:11:23;;;;;;;9.23;7.47;;;;;;;;;;5015581;28;20270;-65
2023/04/08 12:13:49;;;;;;;9.40;7.80;;;;;;;;;;5015385;28;20676;-65
2023/04/08 12:16:15;;;;;;;11.77;8.83;;;;;;;;;;5015404;28;20187;-65
2023/04/08 12:18:41;;;;;;;12.43;8.70;;;;;;;;;;5033063;28;20175;-65
2023/04/08 12:21:07;;;;;;;10.00;8.30;;;;;;;;;;5015286;28;20205;-65
2023/04/08 12:23:33;;;;;;;10.50;7.83;;;;;;;;;;5033144;28;20641;-65
2023/04/08 12:25:59;;;;;;;8.67;7.73;;;;;;;;;;5033135;28;20245;-65
2023/04/08 12:28:25;;;;;;;13.50;8.77;;;;;;;;;;5033574;28;20607;-65
2023/04/08 12:30:51;;;;;;;10.27;8.20;;;;;;;;;;5032879;28;20724;-65
2023/04/08 12:33:17;;;;;;;10.30;8.27;;;;;;;;;;5033399;28;20300;-65
2023/04/08 12:35:43;;;;;;;11.30;8.27;;;;;;;;;;5032994;28;20206;-67
2023/04/08 12:38:09;;;;;;;10.73;8.40;;;;;;;;;;5015171;28;20183;-65
2023/04/08 12:40:35;;;;;;;12.07;8.17;;;;;;;;;;5033046;28;20206;-65
2023/04/08 12:43:01;;;;;;;9.87;8.40;;;;;;;;;;5015296;28;20665;-66
2023/04/08 12:45:27;;;;;;;10.53;8.53;;;;;;;;;;5032983;28;20179;-64
2023/04/08 12:47:53;;;;;;;10.57;8.80;;;;;;;;;;5032894;28;20607;-66
2023/04/08 12:50:19;;;;;;;10.03;9.03;;;;;;;;;;5033075;28;20681;-65
2023/04/08 12:52:45;;;;;;;10.10;9.10;;;;;;;;;;5032827;28;20564;-65
2023/04/08 12:55:11;;;;;;;9.63;8.53;;;;;;;;;;5033807;28;20205;-65
2023/04/08 12:57:37;;;;;;;9.63;8.43;;;;;;;;;;5038965;28;20206;-64
2023/04/08 13:00:04;;;;;;;10.20;9.20;;;;;;;;;;5021093;28;20233;-65
2023/04/08 13:02:30;;;;;;;9.63;8.20;;;;;;;;;;5020533;28;20190;-65
2023/04/08 13:04:56;;;;;;;9.90;8.90;;;;;;;;;;5036432;28;20229;-64
2023/04/08 13:07:22;;;;;;;10.00;8.73;;;;;;;;;;5018706;28;20270;-64
2023/04/08 13:09:48;;;;;;;10.10;9.07;;;;;;;;;;5018619;28;20199;-66
2023/04/08 13:12:15;;;;;;;12.00;9.13;;;;;;;;;;5036482;28;20186;-65
2023/04/08 13:14:41;;;;;;;9.43;8.53;;;;;;;;;;5021388;28;20559;-65
2023/04/08 13:17:07;;;;;;;11.43;9.17;;;;;;;;;;5039551;28;20181;-66
2023/04/08 13:19:33;;;;;;;9.80;8.90;;;;;;;;;;5039099;28;20195;-64
2023/04/08 13:22:02;;;;;;;11.50;9.90;;;;;;;;;;5037868;28;20634;-65
2023/04/08 13:24:28;;;;;;;10.00;9.00;;;;;;;;;;5018397;28;20186;-65
2023/04/08 13:26:54;;;;;;;10.53;9.63;;;;;;;;;;5036091;28;20175;-65
2023/04/08 13:29:20;;;;;;;10.53;9.47;;;;;;;;;;5036007;28;20215;-65
2023/04/08 13:31:46;;;;;;;10.93;9.87;;;;;;;;;;5037813;28;20171;-64
2023/04/08 13:34:12;;;;;;;10.20;9.20;;;;;;;;;;5041444;28;20290;-65
2023/04/08 13:36:38;;;;;;;10.03;9.03;;;;;;;;;;5039525;28;20198;-66
2023/04/08 13:39:04;;;;;;;10.50;9.40;;;;;;;;;;5036485;28;20645;-65
2023/04/08 13:41:29;;;;;;;11.77;9.10;;;;;;;;;;5036582;28;20638;-65
2023/04/08 13:43:55;;;;;;;10.03;8.87;;;;;;;;;;5035861;28;20657;-65
2023/04/08 13:46:21;;;;;;;10.13;9.07;;;;;;;;;;5035722;28;20603;-65
2023/04/08 13:48:47;;;;;;;11.03;9.13;;;;;;;;;;5035454;28;20181;-64
2023/04/08 13:51:13;;;;;;;10.33;9.30;;;;;;;;;;5017635;28;20187;-66
2023/04/08 13:53:39;;;;;;;8.37;7.47;;;;;;;;;;5017639;28;20182;-65
2023/04/08 13:56:05;;;;;;;8.57;7.40;;;;;;;;;;5035470;28;20254;-65
2023/04/08 13:58:31;;;;;;;11.30;8.20;;;;;;;;;;5035552;28;20586;-65
2023/04/08 14:00:57;;;;;;;8.30;7.50;;;;;;;;;;5035397;28;20206;-65
2023/04/08 14:03:23;;;;;;;9.40;7.93;;;;;;;;;;5017813;28;20175;-67
2023/04/08 14:05:52;;;;;;;9.00;7.80;;;;;;;;;;5034887;28;20179;-65
2023/04/08 14:08:24;;;;;;;9.07;8.17;;;;;;;;;;5034528;28;20553;-66
2023/04/08 14:10:50;;;;;;;8.20;7.40;;;;;;;;;;5035222;28;20738;-67
2023/04/08 14:13:16;;;;;;;9.77;8.23;;;;;;;;;;5017388;28;20275;-66
2023/04/08 14:15:42;;;;;;;8.87;8.00;;;;;;;;;;5017238;28;20297;-66
2023/04/08 14:18:08;;;;;;;13.17;8.30;;;;;;;;;;5035021;28;20175;-67